createdAt,value
2023-04-03T00:01:41.598Z,95.79
2023-04-03T00:04:10.562Z,96.66
2023-04-03T00:06:39.741Z,96.51
2023-04-03T00:09:10.490Z,96.44
2023-04-03T00:11:39.583Z,97.29
2023-04-03T00:14:08.552Z,97.10
2023-04-03T00:16:37.568Z,96.66
2023-04-03T00:19:07.282Z,97.12
2023-04-03T00:21:36.405Z,96.54
2023-04-03T00:24:05.325Z,96.29
2023-04-03T00:26:34.389Z,96.69
2023-04-03T00:29:03.302Z,96.73
2023-04-03T00:31:32.496Z,96.11
2023-04-03T00:34:01.399Z,96.53
2023-04-03T00:36:30.540Z,95.73
2023-04-03T00:38:59.444Z,96.17
2023-04-03T00:41:28.390Z,96.40
2023-04-03T00:43:57.228Z,96.63
2023-04-03T00:46:26.214Z,97.95
2023-04-03T00:48:55.494Z,96.82
2023-04-03T00:51:29.012Z,99.00
2023-04-03T00:54:06.841Z,98.28
2023-04-03T00:56:38.351Z,98.89
2023-04-03T00:59:16.330Z,97.25
2023-04-03T01:01:45.924Z,98.38
2023-04-03T01:04:32.776Z,97.79
2023-04-03T01:07:12.001Z,98.17
2023-04-03T01:09:42.182Z,98.99
2023-04-03T01:12:26.438Z,99.69
2023-04-03T01:14:58.426Z,100.00
2023-04-03T01:17:38.794Z,100.00
2023-04-03T01:20:37.858Z,100.00
2023-04-03T01:23:12.820Z,100.00
2023-04-03T01:25:42.067Z,100.00
2023-04-03T01:28:15.162Z,100.00
2023-04-03T01:30:53.380Z,100.00
2023-04-03T01:33:22.608Z,100.00
2023-04-03T01:35:51.918Z,99.55
2023-04-03T01:38:21.167Z,99.28
2023-04-03T01:40:50.100Z,99.26
2023-04-03T01:43:19.787Z,98.73
2023-04-03T01:45:48.864Z,99.03
2023-04-03T01:48:19.270Z,98.07
2023-04-03T01:50:48.453Z,97.95
2023-04-03T01:53:17.340Z,98.23
2023-04-03T01:55:46.681Z,97.52
2023-04-03T01:58:15.458Z,97.55
2023-04-03T02:00:44.550Z,97.60
2023-04-03T02:03:13.657Z,97.03
2023-04-03T02:05:42.778Z,96.81
2023-04-03T02:08:12.597Z,95.73
2023-04-03T02:10:42.212Z,96.37
2023-04-03T02:13:10.947Z,96.52
2023-04-03T02:15:43.332Z,95.57
2023-04-03T02:18:12.085Z,94.74
2023-04-03T02:20:41.026Z,94.73
2023-04-03T02:23:10.003Z,94.86
2023-04-03T02:25:39.233Z,94.36
2023-04-03T02:28:08.771Z,93.72
2023-04-03T02:30:37.891Z,93.88
2023-04-03T02:33:07.154Z,93.23
2023-04-03T02:35:36.003Z,92.94
2023-04-03T02:38:05.226Z,92.77
2023-04-03T02:40:34.121Z,92.00
2023-04-03T02:43:03.187Z,92.63
2023-04-03T02:45:33.992Z,91.33
2023-04-03T02:48:03.180Z,92.38
2023-04-03T02:50:31.986Z,91.19
2023-04-03T02:53:01.004Z,91.57
2023-04-03T02:55:29.846Z,91.17
2023-04-03T02:57:58.955Z,92.19
2023-04-03T03:00:28.015Z,91.73
2023-04-03T03:02:57.137Z,91.96
2023-04-03T03:05:26.611Z,89.93
2023-04-03T03:07:56.544Z,91.41
2023-04-03T03:10:25.977Z,89.23
2023-04-03T03:12:55.064Z,90.34
2023-04-03T03:15:23.884Z,90.06
2023-04-03T03:17:52.897Z,89.69
2023-04-03T03:20:22.848Z,89.91
2023-04-03T03:22:52.411Z,90.86
2023-04-03T03:25:21.271Z,90.03
2023-04-03T03:27:50.265Z,89.83
2023-04-03T03:30:19.240Z,91.60
2023-04-03T03:32:48.670Z,91.17
2023-04-03T03:35:17.488Z,91.49
2023-04-03T03:37:46.631Z,91.52
2023-04-03T03:40:16.428Z,91.32
2023-04-03T03:42:47.355Z,91.44
2023-04-03T03:45:16.466Z,92.24
2023-04-03T03:47:45.926Z,92.16
2023-04-03T03:50:15.183Z,91.67
2023-04-03T03:52:44.369Z,92.68
2023-04-03T03:55:14.261Z,92.93
2023-04-03T03:57:43.514Z,93.12
2023-04-03T04:00:13.428Z,92.98
2023-04-03T04:02:50.845Z,93.87
2023-04-03T04:05:22.434Z,93.54
2023-04-03T04:07:51.514Z,94.06
2023-04-03T04:10:20.561Z,95.98
2023-04-03T04:12:51.048Z,94.79
2023-04-03T04:15:23.707Z,95.11
2023-04-03T04:17:53.322Z,95.31
2023-04-03T04:20:22.932Z,95.30
2023-04-03T04:22:51.864Z,94.77
2023-04-03T04:25:22.144Z,95.02
2023-04-03T04:27:51.596Z,95.66
2023-04-03T04:30:20.818Z,94.67
2023-04-03T04:32:51.765Z,94.00
2023-04-03T04:35:20.867Z,95.79
2023-04-03T04:37:52.659Z,94.25
2023-04-03T04:40:22.902Z,94.26
2023-04-03T04:42:52.325Z,93.95
2023-04-03T04:45:21.476Z,94.52
2023-04-03T04:47:51.827Z,95.22
2023-04-03T04:50:21.672Z,96.07
2023-04-03T04:52:50.911Z,94.43
2023-04-03T04:55:20.062Z,92.21
2023-04-03T04:57:48.928Z,93.69
2023-04-03T05:00:19.416Z,91.54
2023-04-03T05:02:49.219Z,92.66
2023-04-03T05:05:20.311Z,94.38
2023-04-03T05:07:49.564Z,93.82
2023-04-03T05:10:19.139Z,91.68
2023-04-03T05:12:48.921Z,91.66
2023-04-03T05:15:18.181Z,93.13
2023-04-03T05:17:48.065Z,91.31
2023-04-03T05:20:17.907Z,88.86
2023-04-03T05:22:48.632Z,89.16
2023-04-03T05:25:18.387Z,87.59
2023-04-03T05:27:47.328Z,88.64
2023-04-03T05:30:16.774Z,88.17
2023-04-03T05:32:47.423Z,87.99
2023-04-03T05:35:24.549Z,86.66
2023-04-03T05:37:58.319Z,87.57
2023-04-03T05:40:28.281Z,86.25
2023-04-03T05:46:59.471Z,84.23
2023-04-03T05:49:29.980Z,83.90
2023-04-03T05:52:00.014Z,81.93
2023-04-03T05:54:33.591Z,82.83
2023-04-03T05:57:10.966Z,82.52
2023-04-03T05:59:41.176Z,83.36
2023-04-03T06:02:14.149Z,83.36
2023-04-03T06:04:44.586Z,82.97
2023-04-03T06:07:23.542Z,82.15
2023-04-03T06:09:54.151Z,82.63
2023-04-03T06:12:24.581Z,81.65
2023-04-03T06:14:54.811Z,81.34
2023-04-03T06:17:25.117Z,82.21
2023-04-03T06:19:56.277Z,81.20
2023-04-03T06:23:21.190Z,81.45
2023-04-03T06:25:50.376Z,80.68
2023-04-03T06:32:59.235Z,79.09
2023-04-03T06:35:30.814Z,77.77
2023-04-03T06:38:00.969Z,76.02
2023-04-03T06:40:30.673Z,75.30
2023-04-03T06:43:00.781Z,74.02
2023-04-03T06:45:30.785Z,73.33
2023-04-03T06:48:00.632Z,72.88
2023-04-03T06:50:40.132Z,73.77
2023-04-03T06:53:40.692Z,74.33
2023-04-03T06:56:13.626Z,74.64
2023-04-03T06:58:44.165Z,72.14
2023-04-03T07:01:16.493Z,72.65
2023-04-03T07:23:23.275Z,74.48
2023-04-03T07:25:54.611Z,73.31
2023-04-03T07:28:29.255Z,72.34
2023-04-03T07:32:06.501Z,73.34
2023-04-03T07:34:36.076Z,74.25
2023-04-03T07:37:05.257Z,74.20
2023-04-03T07:39:34.950Z,74.27
2023-04-03T07:42:04.389Z,73.86
2023-04-03T07:44:34.380Z,74.21
2023-04-03T07:47:03.456Z,75.34
2023-04-03T07:49:34.969Z,74.56
2023-04-03T07:52:04.440Z,74.48
2023-04-03T07:54:33.430Z,74.23
2023-04-03T07:57:03.472Z,75.00
2023-04-03T07:59:32.740Z,74.82
2023-04-03T08:02:17.746Z,75.28
2023-04-03T08:04:48.624Z,76.04
2023-04-03T08:07:17.708Z,77.50
2023-04-03T08:09:47.002Z,77.79
2023-04-03T08:12:16.759Z,77.64
2023-04-03T08:14:46.081Z,77.86
2023-04-03T08:17:14.996Z,78.05
2023-04-03T08:19:44.210Z,79.04
2023-04-03T08:22:13.122Z,78.61
2023-04-03T08:24:52.527Z,78.99
2023-04-03T08:27:29.955Z,79.37
2023-04-03T08:29:59.219Z,79.83
2023-04-03T08:32:29.082Z,81.14
2023-04-03T08:34:58.622Z,80.87
2023-04-03T08:37:27.397Z,81.04
2023-04-03T08:39:56.921Z,80.64
2023-04-03T08:42:41.737Z,79.35
2023-04-03T08:45:23.905Z,79.81
2023-04-03T08:48:03.854Z,79.95
2023-04-03T08:50:40.136Z,81.00
2023-04-03T08:53:17.667Z,80.33
2023-04-03T08:55:52.786Z,79.76
2023-04-03T08:58:25.978Z,79.71
2023-04-03T09:01:00.621Z,78.02
2023-04-03T09:03:33.439Z,78.13
2023-04-03T09:06:26.299Z,76.41
2023-04-03T09:08:55.231Z,76.96
2023-04-03T09:11:47.306Z,76.51
2023-04-03T09:14:31.684Z,76.80
2023-04-03T09:17:05.188Z,75.11
2023-04-03T09:19:34.769Z,74.86
2023-04-03T09:22:26.349Z,73.88
2023-04-03T09:25:04.079Z,74.01
2023-04-03T09:27:33.279Z,74.67
2023-04-03T09:30:02.208Z,74.79
2023-04-03T09:32:34.476Z,74.83
2023-04-03T09:35:20.569Z,75.45
2023-04-03T09:37:58.764Z,76.36
2023-04-03T09:40:27.843Z,73.99
2023-04-03T09:43:03.779Z,72.68
2023-04-03T09:45:35.705Z,70.08
2023-04-03T09:48:18.087Z,66.90
2023-04-03T09:50:53.168Z,66.80
2023-04-03T09:53:38.009Z,67.23
2023-04-03T09:56:22.587Z,67.98
2023-04-03T09:59:09.441Z,69.67
2023-04-03T10:01:41.883Z,69.05
2023-04-03T10:04:20.111Z,68.28
2023-04-03T10:06:52.592Z,67.08
2023-04-03T10:09:30.143Z,68.20
2023-04-03T10:12:09.100Z,67.37
2023-04-03T10:14:40.428Z,68.13
2023-04-03T10:17:22.398Z,67.92
2023-04-03T10:20:11.892Z,67.61
2023-04-03T10:23:29.774Z,68.30
2023-04-03T10:25:58.754Z,67.81
2023-04-03T10:28:36.390Z,68.01
2023-04-03T10:31:09.336Z,68.13
2023-04-03T10:33:53.425Z,68.94
2023-04-03T10:36:22.505Z,68.89
2023-04-03T10:39:07.357Z,70.14
2023-04-03T10:42:15.207Z,69.69
2023-04-03T10:44:48.909Z,69.89
2023-04-03T10:47:23.762Z,70.17
2023-04-03T10:50:14.635Z,69.74
2023-04-03T10:52:58.621Z,70.39
2023-04-03T10:55:36.778Z,69.25
2023-04-03T10:58:09.201Z,70.30
2023-04-03T11:00:54.739Z,69.89
2023-04-03T11:03:52.552Z,69.47
2023-04-03T11:06:26.989Z,69.15
2023-04-03T11:09:08.688Z,69.25
2023-04-03T11:11:40.900Z,69.28
2023-04-03T11:14:18.226Z,69.71
2023-04-03T11:17:11.152Z,70.22
2023-04-03T11:20:10.928Z,71.22
2023-04-03T11:22:47.201Z,70.72
2023-04-03T11:25:27.880Z,70.51
2023-04-03T11:28:00.002Z,68.28
2023-04-03T11:30:58.264Z,68.18
2023-04-03T11:33:30.972Z,67.71
2023-04-03T11:36:34.748Z,67.34
2023-04-03T11:39:27.952Z,67.87
2023-04-03T11:42:06.817Z,68.38
2023-04-03T11:44:41.058Z,69.79
2023-04-03T11:47:13.775Z,69.94
2023-04-03T11:50:05.072Z,69.86
2023-04-03T11:52:44.932Z,70.35
2023-04-03T11:55:26.045Z,71.26
2023-04-03T11:58:01.133Z,70.39
2023-04-03T12:00:52.791Z,71.00
2023-04-03T12:03:28.489Z,71.38
2023-04-03T12:06:11.732Z,71.95
2023-04-03T12:08:49.433Z,71.90
2023-04-03T12:11:33.568Z,72.13
2023-04-03T12:14:02.520Z,72.64
2023-04-03T12:16:40.333Z,73.21
2023-04-03T12:19:18.636Z,72.96
2023-04-03T12:21:53.880Z,73.04
2023-04-03T12:24:38.261Z,72.80
2023-04-03T12:27:39.015Z,73.69
2023-04-03T12:30:17.177Z,73.61
2023-04-03T12:33:12.519Z,73.48
2023-04-03T12:35:57.132Z,73.74
2023-04-03T12:38:35.245Z,73.21
2023-04-03T12:41:12.757Z,73.71
2023-04-03T12:44:06.453Z,74.42
2023-04-03T12:46:47.938Z,74.19
2023-04-03T12:49:32.126Z,75.03
2023-04-03T12:52:01.848Z,75.27
2023-04-03T12:54:33.515Z,75.52
2023-04-03T12:57:34.848Z,76.09
2023-04-03T13:00:23.044Z,76.55
2023-04-03T13:02:52.433Z,76.98
2023-04-03T13:05:23.720Z,77.93
2023-04-03T13:08:05.108Z,78.41
2023-04-03T13:10:45.413Z,78.56
2023-04-03T13:13:17.786Z,78.25
2023-04-03T13:15:51.033Z,79.00
2023-04-03T13:18:37.451Z,80.17
2023-04-03T13:21:10.660Z,80.70
2023-04-03T13:23:45.679Z,81.38
2023-04-03T13:26:18.187Z,80.77
2023-04-03T13:28:49.755Z,80.48
2023-04-03T13:31:29.861Z,81.38
2023-04-03T13:34:07.908Z,82.16
2023-04-03T13:36:43.150Z,81.68
2023-04-03T13:39:18.281Z,82.79
2023-04-03T13:41:54.191Z,82.40
2023-04-03T13:44:26.274Z,82.40
2023-04-03T13:47:16.776Z,83.21
2023-04-03T13:50:00.361Z,83.41
2023-04-03T13:52:39.836Z,83.70
2023-04-03T13:55:26.024Z,84.88
2023-04-03T13:58:23.820Z,84.37
2023-04-03T14:01:01.530Z,84.50
2023-04-03T14:03:40.369Z,84.71
2023-04-03T14:06:13.132Z,84.13
2023-04-03T14:08:43.730Z,83.78
2023-04-03T14:11:34.741Z,84.92
2023-04-03T14:14:08.466Z,84.98
2023-04-03T14:16:42.891Z,85.16
2023-04-03T14:19:38.173Z,84.24
2023-04-03T14:22:32.168Z,84.54
2023-04-03T14:25:02.068Z,85.54
2023-04-03T14:27:37.494Z,85.47
2023-04-03T14:30:11.426Z,85.53
2023-04-03T14:32:40.532Z,84.68
2023-04-03T14:35:09.682Z,85.69
2023-04-03T14:37:38.776Z,85.63
2023-04-03T14:40:11.014Z,85.84
2023-04-03T14:42:40.220Z,85.21
2023-04-03T14:45:13.362Z,85.87
2023-04-03T14:47:49.595Z,86.02
2023-04-03T14:50:23.472Z,86.75
2023-04-03T14:52:55.855Z,86.10
2023-04-03T14:55:25.264Z,86.15
2023-04-03T14:57:55.093Z,85.90
2023-04-03T15:00:24.973Z,86.50
2023-04-03T15:02:54.299Z,85.76
2023-04-03T15:05:23.498Z,86.34
2023-04-03T15:07:54.476Z,86.58
2023-04-03T15:10:31.972Z,86.85
2023-04-03T15:13:01.196Z,87.06
2023-04-03T15:15:32.446Z,86.54
2023-04-03T15:18:02.040Z,86.91
2023-04-03T15:20:32.851Z,87.29
2023-04-03T15:23:06.873Z,87.80
2023-04-03T15:25:35.967Z,87.56
2023-04-03T15:28:04.832Z,87.15
2023-04-03T15:30:33.855Z,87.53
2023-04-03T15:33:02.621Z,87.55
2023-04-03T15:35:31.703Z,87.79
2023-04-03T15:38:00.470Z,88.15
2023-04-03T15:40:29.960Z,88.42
2023-04-03T15:42:58.669Z,89.31
2023-04-03T15:45:30.670Z,88.93
2023-04-03T15:48:00.314Z,89.31
2023-04-03T15:50:29.483Z,89.26
2023-04-03T15:52:59.990Z,89.61
2023-04-03T15:55:32.387Z,90.20
2023-04-03T15:58:01.826Z,90.00
2023-04-03T16:00:31.476Z,90.46
2023-04-03T16:03:08.679Z,90.83
2023-04-03T16:05:40.594Z,90.31
2023-04-03T16:08:10.190Z,90.13
2023-04-03T16:10:40.128Z,89.96
2023-04-03T16:13:09.379Z,90.96
2023-04-03T16:15:39.159Z,90.36
2023-04-03T16:18:08.229Z,91.34
2023-04-03T16:20:37.967Z,90.51
2023-04-03T16:23:07.442Z,90.18
2023-04-03T16:25:40.013Z,91.10
2023-04-03T16:28:09.850Z,91.79
2023-04-03T16:30:38.648Z,90.90
2023-04-03T16:33:07.847Z,91.48
2023-04-03T16:35:37.188Z,91.18
2023-04-03T16:38:07.346Z,92.17
2023-04-03T16:40:36.743Z,92.69
2023-04-03T16:43:05.782Z,92.57
2023-04-03T16:45:34.684Z,92.45
2023-04-03T16:48:03.658Z,91.47
2023-04-03T16:50:32.482Z,92.95
2023-04-03T16:53:01.645Z,91.86
2023-04-03T16:55:30.420Z,93.36
2023-04-03T16:57:59.395Z,93.33
2023-04-03T17:00:28.106Z,92.40
2023-04-03T17:02:57.046Z,92.97
2023-04-03T17:05:26.221Z,92.73
2023-04-03T17:07:55.178Z,93.10
2023-04-03T17:10:23.846Z,94.33
2023-04-03T17:12:52.901Z,94.42
2023-04-03T17:15:22.075Z,94.28
2023-04-03T17:17:53.630Z,94.20
2023-04-03T17:20:22.663Z,93.40
2023-04-03T17:22:51.649Z,94.43
2023-04-03T17:25:20.876Z,94.78
2023-04-03T17:27:49.703Z,95.44
2023-04-03T17:30:18.881Z,94.60
2023-04-03T17:32:47.811Z,94.25
2023-04-03T17:35:16.997Z,94.57
2023-04-03T17:37:45.705Z,95.68
2023-04-03T17:40:15.964Z,95.60
2023-04-03T17:42:44.942Z,94.79
2023-04-03T17:45:13.750Z,94.91
2023-04-03T17:47:42.811Z,95.21
2023-04-03T17:50:12.343Z,95.03
2023-04-03T17:52:41.312Z,95.45
2023-04-03T17:55:10.269Z,95.18
2023-04-03T17:57:39.226Z,95.85
2023-04-03T18:00:10.308Z,95.61
2023-04-03T18:02:43.237Z,95.48
2023-04-03T18:05:12.422Z,95.38
2023-04-03T18:07:42.651Z,95.71
2023-04-03T18:10:12.164Z,95.79
2023-04-03T18:12:43.394Z,96.68
2023-04-03T18:15:13.265Z,96.91
2023-04-03T18:17:42.361Z,96.29
2023-04-03T18:20:12.775Z,97.41
2023-04-03T18:22:42.409Z,97.00
2023-04-03T18:25:12.559Z,97.77
2023-04-03T18:27:42.234Z,97.30
2023-04-03T18:30:14.422Z,97.48
2023-04-03T18:32:43.898Z,95.97
2023-04-03T18:35:12.859Z,95.99
2023-04-03T18:37:41.834Z,97.60
2023-04-03T18:40:11.298Z,96.97
2023-04-03T18:42:42.237Z,96.92
2023-04-03T18:45:13.134Z,96.26
2023-04-03T18:47:42.263Z,96.93
2023-04-03T18:50:11.424Z,95.88
2023-04-03T18:52:40.633Z,96.48
2023-04-03T18:55:12.068Z,96.91
2023-04-03T18:57:40.981Z,95.89
2023-04-03T19:00:10.291Z,96.84
2023-04-03T19:02:39.773Z,96.03
2023-04-03T19:05:12.326Z,96.27
2023-04-03T19:07:45.645Z,97.28
2023-04-03T19:10:18.291Z,97.41
2023-04-03T19:12:52.947Z,97.31
2023-04-03T19:15:25.238Z,97.30
2023-04-03T19:17:54.583Z,98.49
2023-04-03T19:20:23.416Z,98.25
2023-04-03T19:22:52.355Z,98.42
2023-04-03T19:25:21.426Z,98.58
2023-04-03T19:27:51.133Z,99.22
2023-04-03T19:30:19.989Z,98.87
2023-04-03T19:32:48.873Z,99.17
2023-04-03T19:35:17.599Z,99.28
2023-04-03T19:37:50.065Z,100.00
2023-04-03T19:40:19.259Z,98.98
2023-04-03T19:42:48.245Z,100.00
2023-04-03T19:45:19.035Z,100.00
2023-04-03T19:47:48.388Z,99.79
2023-04-03T19:50:17.330Z,98.71
2023-04-03T19:52:46.610Z,98.18
2023-04-03T19:55:15.813Z,97.72
2023-04-03T19:57:44.771Z,97.00
2023-04-03T20:00:14.875Z,95.71
2023-04-03T20:02:44.323Z,95.90
2023-04-03T20:05:13.627Z,95.13
2023-04-03T20:07:43.565Z,95.10
2023-04-03T20:10:14.100Z,94.66
2023-04-03T20:12:44.344Z,95.71
2023-04-03T20:15:15.046Z,95.10
2023-04-03T20:17:45.449Z,96.38
2023-04-03T20:20:16.103Z,97.00
2023-04-03T20:22:46.424Z,97.51
2023-04-03T20:25:23.657Z,97.61
2023-04-03T20:28:06.923Z,97.64
2023-04-03T20:30:36.752Z,98.36
2023-04-03T20:33:08.362Z,97.54
2023-04-03T20:35:38.147Z,97.66
2023-04-03T20:38:08.752Z,97.67
2023-04-03T20:40:39.483Z,97.49
2023-04-03T20:43:09.928Z,97.53
2023-04-03T20:45:40.602Z,99.15
2023-04-03T20:48:10.733Z,99.14
2023-04-03T20:50:40.915Z,100.00
2023-04-03T20:53:11.363Z,99.93
2023-04-03T20:55:41.422Z,99.42
2023-04-03T20:58:11.715Z,99.62
2023-04-03T21:00:43.098Z,99.18
2023-04-03T21:03:15.016Z,98.54
2023-04-03T21:05:45.558Z,96.95
2023-04-03T21:08:52.345Z,94.84
2023-04-03T21:11:59.273Z,94.82
2023-04-03T21:15:06.338Z,93.76
2023-04-03T21:17:36.073Z,93.52
2023-04-03T21:20:06.032Z,93.04
2023-04-03T21:22:36.677Z,94.43
2023-04-03T21:25:07.249Z,93.88
2023-04-03T21:27:37.839Z,93.93
2023-04-03T21:30:08.802Z,94.12
2023-04-03T21:32:39.072Z,94.54
2023-04-03T21:35:10.506Z,93.61
2023-04-03T21:37:40.098Z,94.41
2023-04-03T21:40:09.374Z,93.12
2023-04-03T21:42:38.542Z,93.99
2023-04-03T21:45:07.598Z,93.43
2023-04-03T21:47:37.522Z,93.45
2023-04-03T21:50:06.768Z,94.65
2023-04-03T21:52:35.552Z,93.99
2023-04-03T21:55:04.669Z,94.11
2023-04-03T21:57:33.384Z,94.95
2023-04-03T22:00:02.856Z,95.03
2023-04-03T22:02:34.684Z,93.35
2023-04-03T22:05:04.570Z,92.54
2023-04-03T22:07:33.299Z,94.11
2023-04-03T22:10:02.491Z,94.10
2023-04-03T22:12:31.554Z,93.38
2023-04-03T22:15:02.832Z,93.30
2023-04-03T22:17:32.147Z,93.40
2023-04-03T22:20:00.800Z,94.73
2023-04-03T22:22:29.822Z,93.96
2023-04-03T22:24:58.594Z,92.52
2023-04-03T22:27:27.499Z,94.53
2023-04-03T22:29:56.371Z,93.58
2023-04-03T22:32:25.593Z,94.30
2023-04-03T22:34:54.661Z,95.01
2023-04-03T22:37:23.782Z,94.14
2023-04-03T22:39:52.841Z,94.63
2023-04-03T22:42:22.276Z,95.23
2023-04-03T22:44:51.273Z,94.03
2023-04-03T22:47:20.156Z,93.90
2023-04-03T22:49:48.806Z,95.11
2023-04-03T22:52:20.188Z,94.93
2023-04-03T22:54:49.173Z,94.31
2023-04-03T22:57:17.840Z,94.80
2023-04-03T22:59:46.790Z,93.00
2023-04-03T23:02:15.803Z,93.52
2023-04-03T23:04:44.926Z,93.63
2023-04-03T23:07:14.292Z,94.42
2023-04-03T23:09:43.428Z,94.55
2023-04-03T23:12:12.189Z,93.26
2023-04-03T23:14:41.381Z,93.79
2023-04-03T23:17:10.983Z,93.13
2023-04-03T23:19:40.104Z,93.50
2023-04-03T23:22:09.063Z,93.34
2023-04-03T23:24:38.470Z,93.22
2023-04-03T23:27:07.516Z,92.75
2023-04-03T23:29:36.544Z,92.30
2023-04-03T23:32:05.308Z,92.06
2023-04-03T23:34:34.373Z,92.65
2023-04-03T23:37:03.204Z,92.88
2023-04-03T23:39:32.090Z,91.91
2023-04-03T23:42:00.961Z,91.92
2023-04-03T23:44:30.057Z,92.03
2023-04-03T23:46:59.952Z,91.43
2023-04-03T23:49:29.883Z,91.46
2023-04-03T23:51:58.719Z,92.19
2023-04-03T23:54:27.615Z,91.86
2023-04-03T23:56:56.518Z,92.44
2023-04-03T23:59:25.524Z,92.30
